In Rescue
 
Open Full Screen Window  High Contrast Mode
Wind Gusting 15 knots
09
May 25, 2022 9:41 PM EDT
Present Weather: Light Rain
Weather Information
Wind Direction
  080 °
Wind Speed
  09 kt (10 mph)
Wind Gust
  15 kt (17 mph)
Altimeter
29.95 in
Visibility
7 SM
Temperature
10° C
50° F
Dewpoint
10° C
50° F
Humidity
100%
1hr Rain Fall
00.07 in.
24hr Rain Fall
00.18 in.
Sky Condition
Overcast @ 500 ft
IFR

METAR KERY 260141Z AUTO 08009G15KT 7SM -RA OVC005 10/10 A2995 RMK AO2 T01000100 P0007

FAA Disclaimer: The data displayed is for advisory purposes only and is not to be used for flight planning or operations.